Terminal Aerodrome Forecast
Issued by NWS

Home | Current Version | Previous Version | Text Only | Print | Product List | Glossary On
Versions: 1 2 3 4 5 6 7 8 9 10 11 12 13 14 15 16 17 18
000
FTUS46 KSGX 061731
TAFONT
TAF
KONT 061731Z 0618/0724 VRB06KT P6SM FEW020
     FM062100 25012G18KT P6SM FEW090
     FM070200 25010KT P6SM FEW090
     FM070500 26006KT P6SM SCT015
     FM070700 VRB05KT P6SM OVC015
      TEMPO 0714/0717 5SM HZ
     FM071800 VRB06KT P6SM FEW025
     FM072100 25012G18KT P6SM SKC=

USA.gov is the U.S. government's official web portal to all federal, state and local government web resources and services.